sensor_id;sensor_type;location;lat;lon;timestamp;noise_LAeq;noise_LA_min;noise_LA_max;noise_LA01;noise_LA95
61321;Laerm;17737;52.586;13.284;2023-11-21T00:00:28;63.43;53.20;73.49;;
61321;Laerm;17737;52.586;13.284;2023-11-21T00:02:56;63.37;52.44;69.29;;
61321;Laerm;17737;52.586;13.284;2023-11-21T00:05:24;63.54;52.24;70.71;;
61321;Laerm;17737;52.586;13.284;2023-11-21T00:07:54;63.52;52.96;68.15;;
61321;Laerm;17737;52.586;13.284;2023-11-21T00:10:22;63.52;52.46;78.45;;
61321;Laerm;17737;52.586;13.284;2023-11-21T00:12:50;63.41;52.38;66.78;;
61321;Laerm;17737;52.586;13.284;2023-11-21T00:15:18;63.69;52.34;67.57;;
61321;Laerm;17737;52.586;13.284;2023-11-21T00:17:46;63.17;52.30;66.51;;
61321;Laerm;17737;52.586;13.284;2023-11-21T00:20:14;63.46;52.62;66.75;;
61321;Laerm;17737;52.586;13.284;2023-11-21T00:22:42;63.44;51.97;66.45;;
61321;Laerm;17737;52.586;13.284;2023-11-21T00:25:12;63.52;52.80;67.42;;
61321;Laerm;17737;52.586;13.284;2023-11-21T00:27:42;63.65;53.65;71.97;;
61321;Laerm;17737;52.586;13.284;2023-11-21T00:30:12;63.44;53.80;70.42;;
61321;Laerm;17737;52.586;13.284;2023-11-21T00:32:40;63.40;52.24;72.77;;
61321;Laerm;17737;52.586;13.284;2023-11-21T00:35:09;63.26;52.24;67.28;;
61321;Laerm;17737;52.586;13.284;2023-11-21T00:37:37;63.26;52.00;81.95;;
61321;Laerm;17737;52.586;13.284;2023-11-21T00:40:07;63.48;52.59;79.98;;
61321;Laerm;17737;52.586;13.284;2023-11-21T00:42:37;63.47;52.38;75.95;;
61321;Laerm;17737;52.586;13.284;2023-11-21T00:45:07;63.28;51.96;66.35;;
61321;Laerm;17737;52.586;13.284;2023-11-21T00:47:35;63.32;52.39;66.37;;
61321;Laerm;17737;52.586;13.284;2023-11-21T00:50:04;63.31;52.53;84.60;;
61321;Laerm;17737;52.586;13.284;2023-11-21T00:52:34;63.15;54.60;78.36;;
61321;Laerm;17737;52.586;13.284;2023-11-21T00:55:03;78.81;52.68;102.64;;
61321;Laerm;17737;52.586;13.284;2023-11-21T00:57:31;96.82;52.57;111.12;;
61321;Laerm;17737;52.586;13.284;2023-11-21T01:00:00;94.18;51.84;110.92;;
61321;Laerm;17737;52.586;13.284;2023-11-21T01:02:33;69.94;52.39;92.51;;
61321;Laerm;17737;52.586;13.284;2023-11-21T01:05:03;62.94;52.31;82.91;;
61321;Laerm;17737;52.586;13.284;2023-11-21T01:07:31;88.99;52.17;110.17;;
61321;Laerm;17737;52.586;13.284;2023-11-21T01:09:59;63.03;52.40;84.54;;
61321;Laerm;17737;52.586;13.284;2023-11-21T01:12:27;63.15;53.64;80.19;;
61321;Laerm;17737;52.586;13.284;2023-11-21T01:14:55;63.22;52.83;84.43;;
61321;Laerm;17737;52.586;13.284;2023-11-21T01:17:25;63.37;52.34;88.37;;
61321;Laerm;17737;52.586;13.284;2023-11-21T01:19:54;63.24;56.99;78.81;;
61321;Laerm;17737;52.586;13.284;2023-11-21T01:22:22;63.32;54.48;81.80;;
61321;Laerm;17737;52.586;13.284;2023-11-21T01:24:53;63.03;53.25;79.91;;
61321;Laerm;17737;52.586;13.284;2023-11-21T01:27:21;63.29;52.45;84.01;;
61321;Laerm;17737;52.586;13.284;2023-11-21T01:29:49;92.01;52.23;110.93;;
61321;Laerm;17737;52.586;13.284;2023-11-21T01:32:20;98.67;52.09;110.44;;
61321;Laerm;17737;52.586;13.284;2023-11-21T01:34:50;95.70;52.11;111.23;;
61321;Laerm;17737;52.586;13.284;2023-11-21T01:37:19;86.16;52.33;110.52;;
61321;Laerm;17737;52.586;13.284;2023-11-21T01:39:48;96.18;52.35;111.33;;
61321;Laerm;17737;52.586;13.284;2023-11-21T01:42:16;97.69;51.90;111.18;;
61321;Laerm;17737;52.586;13.284;2023-11-21T01:44:45;96.63;51.97;110.36;;
61321;Laerm;17737;52.586;13.284;2023-11-21T01:47:13;90.89;52.35;110.96;;
61321;Laerm;17737;52.586;13.284;2023-11-21T01:49:44;87.32;52.15;110.10;;
61321;Laerm;17737;52.586;13.284;2023-11-21T01:52:14;62.68;52.48;75.77;;
61321;Laerm;17737;52.586;13.284;2023-11-21T01:54:42;63.03;52.02;79.83;;
61321;Laerm;17737;52.586;13.284;2023-11-21T01:57:13;63.07;55.34;74.64;;
61321;Laerm;17737;52.586;13.284;2023-11-21T01:59:44;63.39;53.67;74.40;;
61321;Laerm;17737;52.586;13.284;2023-11-21T02:02:14;63.32;53.13;81.35;;
61321;Laerm;17737;52.586;13.284;2023-11-21T02:04:42;63.25;52.77;71.75;;
61321;Laerm;17737;52.586;13.284;2023-11-21T02:07:10;63.15;52.75;78.55;;
61321;Laerm;17737;52.586;13.284;2023-11-21T02:09:40;63.38;53.77;78.72;;
61321;Laerm;17737;52.586;13.284;2023-11-21T02:12:09;63.29;52.99;80.14;;
61321;Laerm;17737;52.586;13.284;2023-11-21T02:14:37;90.99;52.37;110.67;;
61321;Laerm;17737;52.586;13.284;2023-11-21T02:17:05;92.81;52.78;110.67;;
61321;Laerm;17737;52.586;13.284;2023-11-21T02:19:33;103.18;52.58;111.65;;
61321;Laerm;17737;52.586;13.284;2023-11-21T02:22:02;102.77;52.82;111.14;;
61321;Laerm;17737;52.586;13.284;2023-11-21T02:24:34;102.50;52.28;110.90;;
61321;Laerm;17737;52.586;13.284;2023-11-21T02:27:03;102.11;52.28;111.08;;
61321;Laerm;17737;52.586;13.284;2023-11-21T02:29:32;100.59;52.67;111.31;;
61321;Laerm;17737;52.586;13.284;2023-11-21T02:32:00;96.10;52.58;111.16;;
61321;Laerm;17737;52.586;13.284;2023-11-21T02:34:28;97.59;52.46;110.59;;
61321;Laerm;17737;52.586;13.284;2023-11-21T02:36:56;101.22;52.73;110.98;;
61321;Laerm;17737;52.586;13.284;2023-11-21T02:39:25;100.08;52.42;111.34;;
61321;Laerm;17737;52.586;13.284;2023-11-21T02:41:54;102.05;52.37;111.32;;
61321;Laerm;17737;52.586;13.284;2023-11-21T02:44:22;100.67;52.48;111.59;;
61321;Laerm;17737;52.586;13.284;2023-11-21T02:46:50;100.13;52.53;111.53;;
61321;Laerm;17737;52.586;13.284;2023-11-21T02:49:18;99.86;52.16;111.11;;
61321;Laerm;17737;52.586;13.284;2023-11-21T02:51:46;95.08;52.36;110.97;;
61321;Laerm;17737;52.586;13.284;2023-11-21T02:54:14;95.94;52.16;111.24;;
61321;Laerm;17737;52.586;13.284;2023-11-21T02:56:46;65.07;52.59;91.95;;
61321;Laerm;17737;52.586;13.284;2023-11-21T02:59:15;73.24;52.15;94.73;;
61321;Laerm;17737;52.586;13.284;2023-11-21T03:01:43;87.61;52.45;108.51;;
61321;Laerm;17737;52.586;13.284;2023-11-21T03:04:11;95.75;52.19;111.05;;
61321;Laerm;17737;52.586;13.284;2023-11-21T03:06:45;81.91;52.61;105.76;;
61321;Laerm;17737;52.586;13.284;2023-11-21T03:09:13;100.03;52.92;111.07;;
61321;Laerm;17737;52.586;13.284;2023-11-21T03:11:41;102.65;52.46;111.66;;
61321;Laerm;17737;52.586;13.284;2023-11-21T03:14:09;98.26;52.27;111.22;;
61321;Laerm;17737;52.586;13.284;2023-11-21T03:16:38;99.95;52.59;110.63;;
61321;Laerm;17737;52.586;13.284;2023-11-21T03:19:07;100.15;52.01;110.97;;
61321;Laerm;17737;52.586;13.284;2023-11-21T03:21:36;102.51;52.16;111.95;;
61321;Laerm;17737;52.586;13.284;2023-11-21T03:24:05;101.25;52.31;111.20;;
61321;Laerm;17737;52.586;13.284;2023-11-21T03:26:34;101.27;52.34;111.13;;
61321;Laerm;17737;52.586;13.284;2023-11-21T03:29:02;100.22;52.14;111.53;;
61321;Laerm;17737;52.586;13.284;2023-11-21T03:31:31;97.52;52.00;111.04;;
61321;Laerm;17737;52.586;13.284;2023-11-21T03:34:00;104.28;52.85;111.67;;
61321;Laerm;17737;52.586;13.284;2023-11-21T03:36:28;98.47;52.43;111.33;;
61321;Laerm;17737;52.586;13.284;2023-11-21T03:38:56;99.90;53.63;110.98;;
61321;Laerm;17737;52.586;13.284;2023-11-21T03:41:24;97.49;52.93;111.01;;
61321;Laerm;17737;52.586;13.284;2023-11-21T03:43:52;91.72;52.13;109.71;;
61321;Laerm;17737;52.586;13.284;2023-11-21T03:46:20;86.08;52.28;110.13;;
61321;Laerm;17737;52.586;13.284;2023-11-21T03:48:48;99.88;53.14;111.34;;
61321;Laerm;17737;52.586;13.284;2023-11-21T03:51:18;99.00;83.17;111.62;;
61321;Laerm;17737;52.586;13.284;2023-11-21T03:53:46;92.55;74.85;101.62;;
61321;Laerm;17737;52.586;13.284;2023-11-21T03:56:14;88.65;79.83;98.43;;
61321;Laerm;17737;52.586;13.284;2023-11-21T03:58:42;92.35;53.76;109.92;;
61321;Laerm;17737;52.586;13.284;2023-11-21T04:01:10;96.42;52.69;110.51;;
61321;Laerm;17737;52.586;13.284;2023-11-21T04:03:38;96.43;52.52;111.29;;
61321;Laerm;17737;52.586;13.284;2023-11-21T04:06:08;102.11;52.25;111.65;;
61321;Laerm;17737;52.586;13.284;2023-11-21T04:08:37;99.76;52.86;111.75;;
61321;Laerm;17737;52.586;13.284;2023-11-21T04:11:05;95.28;52.30;110.90;;
61321;Laerm;17737;52.586;13.284;2023-11-21T04:13:33;91.30;76.25;103.86;;
61321;Laerm;17737;52.586;13.284;2023-11-21T04:16:02;86.60;74.84;96.36;;
61321;Laerm;17737;52.586;13.284;2023-11-21T04:18:30;101.07;52.57;111.46;;
61321;Laerm;17737;52.586;13.284;2023-11-21T04:20:58;94.18;52.64;110.45;;
61321;Laerm;17737;52.586;13.284;2023-11-21T04:23:29;96.80;52.15;110.61;;
61321;Laerm;17737;52.586;13.284;2023-11-21T04:26:00;98.18;52.32;111.59;;
61321;Laerm;17737;52.586;13.284;2023-11-21T04:28:28;94.99;52.17;110.16;;
61321;Laerm;17737;52.586;13.284;2023-11-21T04:30:57;88.30;52.32;108.07;;
61321;Laerm;17737;52.586;13.284;2023-11-21T04:33:25;89.88;51.95;109.76;;
61321;Laerm;17737;52.586;13.284;2023-11-21T04:35:53;85.32;52.52;109.32;;
61321;Laerm;17737;52.586;13.284;2023-11-21T04:38:21;84.26;72.85;93.24;;
61321;Laerm;17737;52.586;13.284;2023-11-21T04:40:49;85.96;72.76;98.31;;
61321;Laerm;17737;52.586;13.284;2023-11-21T04:43:19;95.47;81.61;108.95;;
61321;Laerm;17737;52.586;13.284;2023-11-21T04:45:47;90.01;75.07;100.35;;
61321;Laerm;17737;52.586;13.284;2023-11-21T04:48:15;99.79;80.72;111.13;;
61321;Laerm;17737;52.586;13.284;2023-11-21T04:50:43;98.43;83.27;110.97;;
61321;Laerm;17737;52.586;13.284;2023-11-21T04:53:11;98.29;61.56;110.54;;
61321;Laerm;17737;52.586;13.284;2023-11-21T04:55:41;90.05;52.27;110.27;;
61321;Laerm;17737;52.586;13.284;2023-11-21T04:58:09;82.41;73.31;90.87;;
61321;Laerm;17737;52.586;13.284;2023-11-21T05:00:40;81.15;70.03;87.93;;
61321;Laerm;17737;52.586;13.284;2023-11-21T05:03:08;83.34;73.85;93.75;;
61321;Laerm;17737;52.586;13.284;2023-11-21T05:05:36;92.45;68.63;108.32;;
61321;Laerm;17737;52.586;13.284;2023-11-21T05:08:05;75.59;66.35;84.54;;
61321;Laerm;17737;52.586;13.284;2023-11-21T05:10:33;81.70;63.06;96.42;;
61321;Laerm;17737;52.586;13.284;2023-11-21T05:13:01;75.68;65.72;86.35;;
61321;Laerm;17737;52.586;13.284;2023-11-21T05:15:30;77.90;66.00;86.25;;
61321;Laerm;17737;52.586;13.284;2023-11-21T05:17:59;99.02;52.80;111.49;;
61321;Laerm;17737;52.586;13.284;2023-11-21T05:20:27;84.62;68.72;96.79;;
61321;Laerm;17737;52.586;13.284;2023-11-21T05:22:56;79.33;70.13;87.66;;
61321;Laerm;17737;52.586;13.284;2023-11-21T05:25:25;73.71;65.62;81.20;;
61321;Laerm;17737;52.586;13.284;2023-11-21T05:27:54;78.04;68.12;85.80;;
61321;Laerm;17737;52.586;13.284;2023-11-21T05:30:22;78.88;68.56;86.32;;
61321;Laerm;17737;52.586;13.284;2023-11-21T05:32:50;78.57;69.14;86.83;;
61321;Laerm;17737;52.586;13.284;2023-11-21T05:35:19;79.98;67.92;87.38;;
61321;Laerm;17737;52.586;13.284;2023-11-21T05:37:48;77.25;68.33;85.88;;
61321;Laerm;17737;52.586;13.284;2023-11-21T05:40:16;86.99;69.09;97.36;;
61321;Laerm;17737;52.586;13.284;2023-11-21T05:42:44;80.99;70.39;88.82;;
61321;Laerm;17737;52.586;13.284;2023-11-21T05:45:13;89.05;52.12;109.49;;
61321;Laerm;17737;52.586;13.284;2023-11-21T05:47:44;80.89;70.84;89.28;;
61321;Laerm;17737;52.586;13.284;2023-11-21T05:50:16;72.35;63.03;81.14;;
61321;Laerm;17737;52.586;13.284;2023-11-21T05:52:47;75.31;64.67;81.65;;
61321;Laerm;17737;52.586;13.284;2023-11-21T05:55:16;93.70;52.43;110.44;;
61321;Laerm;17737;52.586;13.284;2023-11-21T05:57:44;90.03;51.99;109.25;;
61321;Laerm;17737;52.586;13.284;2023-11-21T06:00:14;95.64;52.70;110.47;;
61321;Laerm;17737;52.586;13.284;2023-11-21T06:02:47;101.71;53.03;111.43;;
61321;Laerm;17737;52.586;13.284;2023-11-21T06:05:18;76.87;66.30;86.31;;
61321;Laerm;17737;52.586;13.284;2023-11-21T06:07:49;97.74;52.26;111.15;;
61321;Laerm;17737;52.586;13.284;2023-11-21T06:10:17;100.22;51.98;111.23;;
61321;Laerm;17737;52.586;13.284;2023-11-21T06:12:46;100.52;52.28;111.16;;
61321;Laerm;17737;52.586;13.284;2023-11-21T06:15:15;100.76;52.14;112.26;;
61321;Laerm;17737;52.586;13.284;2023-11-21T06:17:46;96.24;51.99;110.10;;
61321;Laerm;17737;52.586;13.284;2023-11-21T06:20:20;99.34;52.25;111.70;;
61321;Laerm;17737;52.586;13.284;2023-11-21T06:22:51;87.82;69.04;106.68;;
61321;Laerm;17737;52.586;13.284;2023-11-21T06:25:19;96.02;52.39;110.40;;
61321;Laerm;17737;52.586;13.284;2023-11-21T06:27:48;93.85;52.15;110.63;;
61321;Laerm;17737;52.586;13.284;2023-11-21T06:30:17;91.34;52.36;109.70;;
61321;Laerm;17737;52.586;13.284;2023-11-21T06:32:47;90.00;81.22;99.75;;
61321;Laerm;17737;52.586;13.284;2023-11-21T06:35:16;89.13;78.51;96.05;;
61321;Laerm;17737;52.586;13.284;2023-11-21T06:37:45;95.53;52.52;110.53;;
61321;Laerm;17737;52.586;13.284;2023-11-21T06:40:18;95.69;76.31;110.04;;
61321;Laerm;17737;52.586;13.284;2023-11-21T06:42:48;93.11;52.11;111.12;;
61321;Laerm;17737;52.586;13.284;2023-11-21T06:45:17;87.10;71.15;98.95;;
61321;Laerm;17737;52.586;13.284;2023-11-21T06:47:57;88.40;74.16;97.66;;
61321;Laerm;17737;52.586;13.284;2023-11-21T06:50:25;87.30;75.08;98.06;;
61321;Laerm;17737;52.586;13.284;2023-11-21T06:52:56;94.33;52.12;110.96;;
61321;Laerm;17737;52.586;13.284;2023-11-21T06:55:27;92.44;52.19;110.11;;
61321;Laerm;17737;52.586;13.284;2023-11-21T06:57:56;69.50;52.05;94.42;;
61321;Laerm;17737;52.586;13.284;2023-11-21T07:00:25;97.88;52.20;111.22;;
61321;Laerm;17737;52.586;13.284;2023-11-21T07:02:56;104.02;52.35;111.64;;
61321;Laerm;17737;52.586;13.284;2023-11-21T07:05:24;96.03;52.13;110.90;;
61321;Laerm;17737;52.586;13.284;2023-11-21T07:07:52;101.21;52.09;110.89;;
61321;Laerm;17737;52.586;13.284;2023-11-21T07:10:20;102.35;52.07;111.04;;
61321;Laerm;17737;52.586;13.284;2023-11-21T07:12:50;100.77;51.94;111.32;;
61321;Laerm;17737;52.586;13.284;2023-11-21T07:15:18;100.10;51.82;111.15;;
61321;Laerm;17737;52.586;13.284;2023-11-21T07:17:46;102.03;52.25;111.51;;
61321;Laerm;17737;52.586;13.284;2023-11-21T07:20:15;102.96;52.16;111.25;;
61321;Laerm;17737;52.586;13.284;2023-11-21T07:22:44;101.25;52.34;110.99;;
61321;Laerm;17737;52.586;13.284;2023-11-21T07:25:12;100.65;85.26;110.76;;
61321;Laerm;17737;52.586;13.284;2023-11-21T07:27:40;101.73;52.25;110.81;;
61321;Laerm;17737;52.586;13.284;2023-11-21T07:30:12;91.77;65.69;108.43;;
61321;Laerm;17737;52.586;13.284;2023-11-21T07:32:40;85.00;73.37;97.46;;
61321;Laerm;17737;52.586;13.284;2023-11-21T07:35:09;74.88;62.69;86.48;;
61321;Laerm;17737;52.586;13.284;2023-11-21T07:37:37;84.44;66.72;94.92;;
61321;Laerm;17737;52.586;13.284;2023-11-21T07:40:07;85.32;73.60;100.62;;
61321;Laerm;17737;52.586;13.284;2023-11-21T07:42:36;82.01;69.40;90.41;;
61321;Laerm;17737;52.586;13.284;2023-11-21T07:45:06;85.38;69.90;99.90;;
61321;Laerm;17737;52.586;13.284;2023-11-21T07:47:36;86.85;70.46;96.19;;
61321;Laerm;17737;52.586;13.284;2023-11-21T07:50:08;86.04;72.04;94.88;;
61321;Laerm;17737;52.586;13.284;2023-11-21T07:52:36;82.94;69.80;97.51;;
61321;Laerm;17737;52.586;13.284;2023-11-21T07:55:05;79.29;70.29;86.01;;
61321;Laerm;17737;52.586;13.284;2023-11-21T07:57:34;81.93;71.08;89.87;;
61321;Laerm;17737;52.586;13.284;2023-11-21T08:00:03;79.23;65.38;87.08;;
61321;Laerm;17737;52.586;13.284;2023-11-21T08:02:33;81.96;73.92;88.50;;
61321;Laerm;17737;52.586;13.284;2023-11-21T08:05:03;81.76;71.67;88.63;;
61321;Laerm;17737;52.586;13.284;2023-11-21T08:07:31;83.87;73.53;93.34;;
61321;Laerm;17737;52.586;13.284;2023-11-21T08:09:59;81.87;73.73;87.71;;
61321;Laerm;17737;52.586;13.284;2023-11-21T08:12:27;84.33;74.42;91.25;;
61321;Laerm;17737;52.586;13.284;2023-11-21T08:14:55;84.60;75.18;93.66;;
61321;Laerm;17737;52.586;13.284;2023-11-21T08:17:23;84.31;74.78;91.29;;
61321;Laerm;17737;52.586;13.284;2023-11-21T08:19:51;83.31;75.08;89.43;;
61321;Laerm;17737;52.586;13.284;2023-11-21T08:22:21;97.88;77.57;110.73;;
61321;Laerm;17737;52.586;13.284;2023-11-21T08:24:50;87.79;74.84;101.04;;
61321;Laerm;17737;52.586;13.284;2023-11-21T08:27:18;81.23;65.71;94.48;;
61321;Laerm;17737;52.586;13.284;2023-11-21T08:29:46;74.08;66.75;81.21;;
61321;Laerm;17737;52.586;13.284;2023-11-21T08:32:14;75.80;68.02;83.99;;
61321;Laerm;17737;52.586;13.284;2023-11-21T08:34:42;84.00;66.52;100.31;;
61321;Laerm;17737;52.586;13.284;2023-11-21T08:37:14;83.93;52.14;107.16;;
61321;Laerm;17737;52.586;13.284;2023-11-21T08:39:44;81.97;52.06;109.36;;
61321;Laerm;17737;52.586;13.284;2023-11-21T08:42:13;99.12;51.84;110.65;;
61321;Laerm;17737;52.586;13.284;2023-11-21T08:44:41;97.79;52.17;110.52;;
61321;Laerm;17737;52.586;13.284;2023-11-21T08:47:09;92.21;60.26;110.14;;
61321;Laerm;17737;52.586;13.284;2023-11-21T08:49:37;85.70;75.45;93.33;;
61321;Laerm;17737;52.586;13.284;2023-11-21T08:52:05;95.74;79.45;110.56;;
61321;Laerm;17737;52.586;13.284;2023-11-21T08:54:33;97.88;52.43;110.84;;
61321;Laerm;17737;52.586;13.284;2023-11-21T08:57:03;88.17;52.18;110.14;;
61321;Laerm;17737;52.586;13.284;2023-11-21T08:59:32;76.01;64.29;88.55;;
61321;Laerm;17737;52.586;13.284;2023-11-21T09:01:59;78.98;67.31;91.84;;
61321;Laerm;17737;52.586;13.284;2023-11-21T09:04:28;84.47;67.69;100.40;;
61321;Laerm;17737;52.586;13.284;2023-11-21T09:06:56;91.97;52.35;110.98;;
61321;Laerm;17737;52.586;13.284;2023-11-21T09:09:26;76.73;64.64;85.59;;
61321;Laerm;17737;52.586;13.284;2023-11-21T09:11:54;77.66;66.37;86.19;;
61321;Laerm;17737;52.586;13.284;2023-11-21T09:14:23;81.47;68.41;90.25;;
61321;Laerm;17737;52.586;13.284;2023-11-21T09:16:52;84.17;70.35;91.32;;
61321;Laerm;17737;52.586;13.284;2023-11-21T09:19:20;85.76;74.36;95.18;;
61321;Laerm;17737;52.586;13.284;2023-11-21T09:21:47;85.61;75.21;94.09;;
61321;Laerm;17737;52.586;13.284;2023-11-21T09:24:16;86.19;73.44;98.67;;
61321;Laerm;17737;52.586;13.284;2023-11-21T09:26:43;84.77;72.24;94.14;;
61321;Laerm;17737;52.586;13.284;2023-11-21T09:29:12;84.90;74.08;93.60;;
61321;Laerm;17737;52.586;13.284;2023-11-21T09:31:41;84.59;70.19;95.32;;
61321;Laerm;17737;52.586;13.284;2023-11-21T09:34:10;85.47;70.96;92.81;;
61321;Laerm;17737;52.586;13.284;2023-11-21T09:36:39;89.34;71.09;98.58;;
61321;Laerm;17737;52.586;13.284;2023-11-21T09:39:07;87.49;73.15;97.16;;
61321;Laerm;17737;52.586;13.284;2023-11-21T09:41:43;81.80;72.11;90.17;;
61321;Laerm;17737;52.586;13.284;2023-11-21T09:44:18;84.96;75.01;99.44;;
61321;Laerm;17737;52.586;13.284;2023-11-21T09:46:48;89.88;74.09;99.96;;
61321;Laerm;17737;52.586;13.284;2023-11-21T09:49:21;90.91;70.59;103.25;;
61321;Laerm;17737;52.586;13.284;2023-11-21T09:51:55;84.38;67.85;93.59;;
61321;Laerm;17737;52.586;13.284;2023-11-21T09:54:24;89.84;80.11;98.67;;
61321;Laerm;17737;52.586;13.284;2023-11-21T09:56:53;89.13;73.72;99.95;;
61321;Laerm;17737;52.586;13.284;2023-11-21T09:59:21;85.05;70.50;98.28;;
61321;Laerm;17737;52.586;13.284;2023-11-21T10:01:51;89.00;73.64;98.44;;
61321;Laerm;17737;52.586;13.284;2023-11-21T10:04:20;96.13;82.71;110.14;;
61321;Laerm;17737;52.586;13.284;2023-11-21T10:06:50;90.59;77.87;99.13;;
61321;Laerm;17737;52.586;13.284;2023-11-21T10:09:20;90.08;80.90;98.24;;
61321;Laerm;17737;52.586;13.284;2023-11-21T10:11:49;90.20;80.91;98.30;;
61321;Laerm;17737;52.586;13.284;2023-11-21T10:14:21;89.08;74.39;98.19;;
61321;Laerm;17737;52.586;13.284;2023-11-21T10:16:53;85.78;72.18;97.36;;
61321;Laerm;17737;52.586;13.284;2023-11-21T10:19:24;102.92;75.15;111.24;;
61321;Laerm;17737;52.586;13.284;2023-11-21T10:21:54;91.79;72.48;108.33;;
61321;Laerm;17737;52.586;13.284;2023-11-21T10:24:24;101.97;73.76;112.10;;
61321;Laerm;17737;52.586;13.284;2023-11-21T10:26:52;90.51;74.33;100.62;;
61321;Laerm;17737;52.586;13.284;2023-11-21T10:29:20;101.15;52.22;111.36;;
61321;Laerm;17737;52.586;13.284;2023-11-21T10:31:50;98.66;52.87;111.13;;
61321;Laerm;17737;52.586;13.284;2023-11-21T10:34:21;88.21;69.76;101.33;;
61321;Laerm;17737;52.586;13.284;2023-11-21T10:36:49;88.96;70.90;101.87;;
61321;Laerm;17737;52.586;13.284;2023-11-21T10:39:17;97.37;55.79;111.18;;
61321;Laerm;17737;52.586;13.284;2023-11-21T10:41:47;95.26;63.79;110.66;;
61321;Laerm;17737;52.586;13.284;2023-11-21T10:44:17;102.42;53.68;112.01;;
61321;Laerm;17737;52.586;13.284;2023-11-21T10:46:49;99.65;52.25;111.28;;
61321;Laerm;17737;52.586;13.284;2023-11-21T10:49:21;102.11;53.21;111.48;;
61321;Laerm;17737;52.586;13.284;2023-11-21T10:51:52;103.21;84.32;111.28;;
61321;Laerm;17737;52.586;13.284;2023-11-21T10:54:22;93.47;83.31;101.97;;
61321;Laerm;17737;52.586;13.284;2023-11-21T10:56:56;90.78;77.07;100.08;;
61321;Laerm;17737;52.586;13.284;2023-11-21T10:59:30;96.91;83.30;111.86;;
61321;Laerm;17737;52.586;13.284;2023-11-21T11:02:07;98.03;85.45;109.51;;
61321;Laerm;17737;52.586;13.284;2023-11-21T11:04:44;97.62;77.56;110.17;;
61321;Laerm;17737;52.586;13.284;2023-11-21T11:07:13;101.55;83.59;111.38;;
61321;Laerm;17737;52.586;13.284;2023-11-21T11:09:43;94.47;80.35;108.34;;
61321;Laerm;17737;52.586;13.284;2023-11-21T11:12:14;101.91;76.37;111.32;;
61321;Laerm;17737;52.586;13.284;2023-11-21T11:14:44;89.71;70.13;102.57;;
61321;Laerm;17737;52.586;13.284;2023-11-21T11:17:13;90.86;67.51;102.67;;
61321;Laerm;17737;52.586;13.284;2023-11-21T11:19:41;92.50;67.85;109.69;;
61321;Laerm;17737;52.586;13.284;2023-11-21T11:22:25;96.51;52.61;111.60;;
61321;Laerm;17737;52.586;13.284;2023-11-21T11:25:21;101.46;52.02;111.90;;
61321;Laerm;17737;52.586;13.284;2023-11-21T11:28:07;101.28;52.97;111.88;;
61321;Laerm;17737;52.586;13.284;2023-11-21T11:30:50;98.92;67.75;110.85;;
61321;Laerm;17737;52.586;13.284;2023-11-21T11:33:37;103.00;61.81;111.45;;
61321;Laerm;17737;52.586;13.284;2023-11-21T11:36:17;97.43;84.10;110.16;;
61321;Laerm;17737;52.586;13.284;2023-11-21T11:38:51;95.56;83.25;110.87;;
61321;Laerm;17737;52.586;13.284;2023-11-21T11:41:27;102.08;82.18;111.56;;
61321;Laerm;17737;52.586;13.284;2023-11-21T11:44:02;103.39;52.21;111.58;;
61321;Laerm;17737;52.586;13.284;2023-11-21T11:46:42;102.02;52.40;111.48;;
61321;Laerm;17737;52.586;13.284;2023-11-21T11:49:23;102.49;52.63;111.20;;
61321;Laerm;17737;52.586;13.284;2023-11-21T11:52:32;102.16;52.02;111.61;;
61321;Laerm;17737;52.586;13.284;2023-11-21T11:55:03;104.18;52.89;111.66;;
61321;Laerm;17737;52.586;13.284;2023-11-21T11:57:32;103.05;52.76;111.52;;
61321;Laerm;17737;52.586;13.284;2023-11-21T12:00:17;102.42;52.42;111.57;;
61321;Laerm;17737;52.586;13.284;2023-11-21T12:02:58;101.46;52.37;111.55;;
61321;Laerm;17737;52.586;13.284;2023-11-21T12:05:31;103.68;52.47;111.46;;
61321;Laerm;17737;52.586;13.284;2023-11-21T12:08:04;101.79;87.39;111.36;;
61321;Laerm;17737;52.586;13.284;2023-11-21T12:10:38;101.57;53.00;111.10;;
61321;Laerm;17737;52.586;13.284;2023-11-21T12:13:09;100.30;76.38;111.70;;
61321;Laerm;17737;52.586;13.284;2023-11-21T12:15:40;100.06;52.26;111.34;;
61321;Laerm;17737;52.586;13.284;2023-11-21T12:18:08;97.52;81.42;110.36;;
61321;Laerm;17737;52.586;13.284;2023-11-21T12:20:37;95.59;80.33;109.02;;
61321;Laerm;17737;52.586;13.284;2023-11-21T12:23:07;100.64;54.65;111.51;;
61321;Laerm;17737;52.586;13.284;2023-11-21T12:25:39;97.69;82.10;111.62;;
61321;Laerm;17737;52.586;13.284;2023-11-21T12:28:08;90.72;80.87;100.98;;
61321;Laerm;17737;52.586;13.284;2023-11-21T12:30:37;85.32;68.09;94.65;;
61321;Laerm;17737;52.586;13.284;2023-11-21T12:33:07;96.69;52.13;110.98;;
61321;Laerm;17737;52.586;13.284;2023-11-21T12:35:37;104.03;52.68;111.84;;
61321;Laerm;17737;52.586;13.284;2023-11-21T12:38:09;100.40;65.29;111.28;;
61321;Laerm;17737;52.586;13.284;2023-11-21T12:40:38;104.06;53.05;111.68;;
61321;Laerm;17737;52.586;13.284;2023-11-21T12:43:08;101.56;83.47;111.18;;
61321;Laerm;17737;52.586;13.284;2023-11-21T12:45:37;100.27;81.29;111.18;;
61321;Laerm;17737;52.586;13.284;2023-11-21T12:48:06;99.92;64.27;110.73;;
61321;Laerm;17737;52.586;13.284;2023-11-21T12:50:39;100.27;84.21;109.63;;
61321;Laerm;17737;52.586;13.284;2023-11-21T12:53:09;98.32;75.71;108.53;;
61321;Laerm;17737;52.586;13.284;2023-11-21T12:55:40;95.27;75.86;107.58;;
61321;Laerm;17737;52.586;13.284;2023-11-21T12:58:10;95.93;77.11;111.48;;
61321;Laerm;17737;52.586;13.284;2023-11-21T13:00:44;99.37;52.35;111.53;;
61321;Laerm;17737;52.586;13.284;2023-11-21T13:03:14;102.46;53.18;111.53;;
61321;Laerm;17737;52.586;13.284;2023-11-21T13:05:49;101.09;52.62;111.18;;
61321;Laerm;17737;52.586;13.284;2023-11-21T13:08:21;102.83;52.40;111.66;;
61321;Laerm;17737;52.586;13.284;2023-11-21T13:10:54;101.85;62.53;111.20;;
61321;Laerm;17737;52.586;13.284;2023-11-21T13:13:29;96.60;67.00;109.70;;
61321;Laerm;17737;52.586;13.284;2023-11-21T13:16:01;96.33;80.29;107.85;;
61321;Laerm;17737;52.586;13.284;2023-11-21T13:18:32;96.65;74.04;109.75;;
61321;Laerm;17737;52.586;13.284;2023-11-21T13:21:03;98.65;79.88;111.53;;
61321;Laerm;17737;52.586;13.284;2023-11-21T13:23:37;95.62;83.39;110.15;;
61321;Laerm;17737;52.586;13.284;2023-11-21T13:26:08;99.74;52.43;111.38;;
61321;Laerm;17737;52.586;13.284;2023-11-21T13:28:37;104.25;52.68;111.78;;
61321;Laerm;17737;52.586;13.284;2023-11-21T13:31:10;100.50;58.62;112.08;;
61321;Laerm;17737;52.586;13.284;2023-11-21T13:33:49;98.92;75.43;112.47;;
61321;Laerm;17737;52.586;13.284;2023-11-21T13:36:26;94.81;82.78;109.40;;
61321;Laerm;17737;52.586;13.284;2023-11-21T13:38:59;93.39;82.47;102.47;;